Risingdale, Massachusetts
Current Conditions -  °F | °C
As of 6:54 PM on Thursday 27 Nov 2014 (Local Time) from KPSF Reporting Station
Light Snow Light Snow  
Wind Chill: 25°   Ceiling: 11000
Heat Index: 25°   Visibility: 6mi
Dew Point: 23°   Wind: 0mph
Humidity: 92%   Direction: NA
Pressure: 29.95"   Gusts: NA
Location:  42.1779°N, 73.3332°W
Report Text: KPSF 272354Z AUTO 00000KT 6SM -SN BR SCT021 OVC110 M04/M05 A2995 RMK AO2 SLP158 P0000 60000 T10391050 11017 21039 53008
Loading
Personal Weather Stations






























Interactive Weather Map New forecast layout! Learn more

10-Day Weather Forecast

Advertisements
Track Severe Weather on mobile